Time;durP1;ratioP1;P1;durP2;ratioP2;P2;SDS_P1;SDS_P2;PMS_P1;PMS_P2;Temp;Humidity;BMP_temperature;BMP_pressure;BME280_temperature;BME280_humidity;BME280_pressure;Samples;Min_cycle;Max_cycle;Signal;HPM_P1;HPM_P2
2022/08/06 00:02:29;;;;;;;10.15;3.10;;;;;;;14.73;63.46;102458.94;5133373;27;20027;-58
2022/08/06 00:04:59;;;;;;;7.40;2.80;;;;;;;14.72;63.25;102456.38;5114993;27;20034;-58
2022/08/06 00:07:27;;;;;;;4.13;2.67;;;;;;;14.61;63.57;102446.25;5132054;27;20027;-58
2022/08/06 00:09:53;;;;;;;4.88;2.75;;;;;;;14.50;63.70;102446.81;5121667;27;20032;-58
2022/08/06 00:12:18;;;;;;;7.82;3.08;;;;;;;14.58;64.16;102446.41;5124901;27;20031;-58
2022/08/06 00:14:46;;;;;;;4.18;2.47;;;;;;;14.56;63.79;102451.00;5093709;27;20110;-58
2022/08/06 00:17:11;;;;;;;8.38;2.90;;;;;;;14.53;64.01;102464.56;5129764;27;20023;-58
2022/08/06 00:19:37;;;;;;;7.53;2.90;;;;;;;14.54;63.77;102461.78;5122112;27;20435;-58
2022/08/06 00:22:03;;;;;;;5.53;3.17;;;;;;;14.53;63.82;102464.56;5082074;27;20039;-58
2022/08/06 00:24:29;;;;;;;8.63;3.25;;;;;;;14.47;64.12;102471.06;5076954;28;20031;-58
2022/08/06 00:26:54;;;;;;;4.75;2.65;;;;;;;14.36;64.41;102475.25;5103454;28;20055;-58
2022/08/06 00:29:20;;;;;;;9.48;3.10;;;;;;;14.29;64.45;102480.94;5084284;27;20493;-58
2022/08/06 00:31:46;;;;;;;10.20;2.97;;;;;;;14.24;64.65;102479.44;5127985;27;20042;-58
2022/08/06 00:34:11;;;;;;;7.60;3.22;;;;;;;14.25;64.61;102479.34;5085617;28;20499;-58
2022/08/06 00:36:37;;;;;;;4.18;3.13;;;;;;;14.21;64.68;102480.47;5088521;28;20040;-58
2022/08/06 00:39:05;;;;;;;6.30;3.42;;;;;;;14.13;65.00;102477.31;5104691;27;20497;-58
2022/08/06 00:41:32;;;;;;;7.63;3.53;;;;;;;14.11;65.06;102481.00;5117376;27;20130;-58
2022/08/06 00:43:59;;;;;;;6.72;3.35;;;;;;;14.10;65.00;102480.16;5118262;27;20099;-58
2022/08/06 00:46:25;;;;;;;11.32;3.20;;;;;;;14.04;64.98;102477.81;5127296;27;20019;-58
2022/08/06 00:48:52;;;;;;;7.43;3.40;;;;;;;13.93;65.54;102478.34;5133053;27;20027;-58
2022/08/06 00:51:17;;;;;;;7.38;3.47;;;;;;;13.97;65.30;102474.59;5124777;27;20030;-58
2022/08/06 00:53:43;;;;;;;5.50;3.20;;;;;;;14.03;65.16;102486.75;5105283;27;20474;-58
2022/08/06 00:56:09;;;;;;;5.72;3.47;;;;;;;13.98;65.40;102491.50;5131909;27;20080;-58
2022/08/06 00:58:35;;;;;;;7.93;3.53;;;;;;;13.98;65.42;102488.81;5119768;27;20031;-58
2022/08/06 01:01:00;;;;;;;5.15;3.25;;;;;;;13.97;65.33;102489.75;5111455;28;20024;-58
2022/08/06 01:03:26;;;;;;;10.38;3.83;;;;;;;13.95;65.40;102489.84;5093682;28;20027;-58
2022/08/06 01:05:51;;;;;;;7.97;3.55;;;;;;;13.97;65.07;102498.66;5085776;27;20129;-58
2022/08/06 01:08:16;;;;;;;6.30;3.30;;;;;;;13.86;65.39;102498.34;5131075;27;20031;-58
2022/08/06 01:10:42;;;;;;;5.20;3.28;;;;;;;13.90;65.27;102507.91;5130334;27;20058;-58
2022/08/06 01:13:08;;;;;;;4.40;3.00;;;;;;;13.84;65.50;102508.22;5132588;27;20114;-58
2022/08/06 01:15:35;;;;;;;6.00;3.22;;;;;;;13.84;65.36;102511.78;5126542;27;20035;-58
2022/08/06 01:18:22;;;;;;;6.07;3.20;;;;;;;13.76;65.77;102510.41;5114480;27;20031;-58
2022/08/06 01:21:16;;;;;;;5.35;3.42;;;;;;;13.73;65.89;102515.91;5116183;27;20029;-58
2022/08/06 01:24:00;;;;;;;6.20;3.40;;;;;;;13.72;66.03;102515.06;5112533;28;20036;-58
2022/08/06 01:26:49;;;;;;;6.03;3.47;;;;;;;13.74;65.70;102518.53;5125086;27;20030;-58
2022/08/06 01:29:29;;;;;;;5.30;3.17;;;;;;;13.67;66.20;102519.75;5116235;28;20028;-61
2022/08/06 01:32:07;;;;;;;;;;;;;;;13.93;64.12;102520.28;5131024;28;20103;-58
2022/08/06 01:34:54;;;;;;;6.72;3.17;;;;;;;13.69;65.54;102515.22;5124418;28;19911;-58
2022/08/06 01:37:50;;;;;;;4.88;3.08;;;;;;;13.57;66.00;102515.81;5093351;28;20024;-58
2022/08/06 01:40:21;;;;;;;6.25;3.15;;;;;;;13.57;66.96;102516.69;5127246;28;20061;-58
2022/08/06 01:42:49;;;;;;;6.25;3.50;;;;;;;13.48;66.96;102518.94;5131360;28;20394;-58
2022/08/06 01:45:19;;;;;;;5.63;3.45;;;;;;;13.42;67.21;102521.91;5105321;28;20077;-58
2022/08/06 01:47:50;;;;;;;3.92;3.20;;;;;;;13.37;67.04;102514.97;5114669;28;20444;-58
2022/08/06 01:50:19;;;;;;;5.05;3.45;;;;;;;13.34;67.35;102525.81;5128503;27;20023;-58
2022/08/06 01:52:45;;;;;;;6.25;3.38;;;;;;;13.35;67.19;102524.00;5097215;28;20055;-58
2022/08/06 01:55:14;;;;;;;7.75;3.50;;;;;;;13.29;67.26;102509.13;5114583;28;20046;-58
2022/08/06 01:57:52;;;;;;;4.88;3.45;;;;;;;13.39;66.95;102526.47;5140273;27;20026;-58
2022/08/06 02:00:19;;;;;;;7.00;3.63;;;;;;;13.33;66.98;102532.09;5116481;28;20011;-59
2022/08/06 02:02:47;;;;;;;5.47;3.95;;;;;;;13.29;67.48;102530.50;5130991;28;20456;-58
2022/08/06 02:05:16;;;;;;;5.63;3.55;;;;;;;13.22;67.77;102533.50;5105479;28;20035;-58
2022/08/06 02:07:45;;;;;;;9.48;4.07;;;;;;;13.22;67.66;102523.69;5127985;28;20027;-58
2022/08/06 02:10:13;;;;;;;;;;;;;;;13.50;65.65;102528.63;5119598;28;20403;-58
2022/08/06 02:12:43;;;;;;;8.25;3.83;;;;;;;13.12;67.29;102509.91;5114543;28;19984;-58
2022/08/06 02:15:14;;;;;;;5.70;3.72;;;;;;;13.15;67.83;102524.94;5098919;28;20023;-58
2022/08/06 02:17:49;;;;;;;8.90;3.63;;;;;;;13.19;67.58;102534.53;5128878;28;20020;-58
2022/08/06 02:20:18;;;;;;;6.72;3.88;;;;;;;13.07;68.07;102527.94;5122106;28;20042;-58
2022/08/06 02:22:45;;;;;;;7.30;3.87;;;;;;;13.09;67.94;102518.06;5099849;28;20475;-58
2022/08/06 02:25:14;;;;;;;5.80;3.72;;;;;;;13.14;68.08;102531.19;5117268;28;20047;-58
2022/08/06 02:27:45;;;;;;;7.13;3.65;;;;;;;13.13;68.27;102534.81;5113883;28;20016;-60
2022/08/06 02:30:12;;;;;;;9.35;4.78;;;;;;;13.09;68.38;102534.09;5110564;28;20059;-58
2022/08/06 02:32:38;;;;;;;8.10;3.90;;;;;;;13.05;68.50;102535.16;5120559;28;20055;-58
2022/08/06 02:35:04;;;;;;;5.78;3.90;;;;;;;13.00;68.38;102521.19;5097569;28;20501;-58
2022/08/06 02:37:36;;;;;;;7.07;4.40;;;;;;;12.99;68.72;102529.25;5111217;27;20055;-58
2022/08/06 02:40:21;;;;;;;5.35;4.00;;;;;;;13.09;68.37;102527.91;5122724;27;20027;-58
2022/08/06 02:43:12;;;;;;;7.93;4.15;;;;;;;13.07;68.31;102532.44;5127832;27;20035;-58
2022/08/06 02:45:55;;;;;;;6.65;4.13;;;;;;;12.94;68.61;102530.34;5133437;27;20105;-58
2022/08/06 02:48:30;;;;;;;6.32;3.90;;;;;;;12.91;68.87;102525.13;5100403;28;20399;-58
2022/08/06 02:50:57;;;;;;;4.95;3.70;;;;;;;12.76;68.80;102516.94;5123032;27;20031;-58
2022/08/06 02:53:30;;;;;;;7.28;4.10;;;;;;;12.78;69.21;102533.75;5114443;28;20450;-58
2022/08/06 02:56:03;;;;;;;6.95;4.20;;;;;;;12.71;69.21;102527.84;5128020;27;20051;-58
2022/08/06 02:58:42;;;;;;;5.35;3.97;;;;;;;12.57;68.80;102511.56;5135206;27;20463;-58
2022/08/06 03:01:18;;;;;;;6.07;3.37;;;;;;;12.62;69.23;102536.28;5133714;27;20031;-58
2022/08/06 03:03:46;;;;;;;6.95;4.18;;;;;;;12.60;68.99;102535.47;5114203;27;20296;-58
2022/08/06 03:06:14;;;;;;;7.97;4.00;;;;;;;12.55;69.21;102534.78;5114075;27;20468;-58
2022/08/06 03:08:41;;;;;;;4.85;3.90;;;;;;;12.54;69.56;102533.06;5128327;27;20429;-58
2022/08/06 03:11:09;;;;;;;8.13;4.18;;;;;;;12.54;69.41;102539.25;5121879;27;20102;-58
2022/08/06 03:13:35;;;;;;;7.15;3.78;;;;;;;12.33;69.75;102517.06;5114101;27;20028;-58
2022/08/06 03:16:04;;;;;;;7.60;3.75;;;;;;;12.47;69.55;102543.13;5128813;27;20027;-58
2022/08/06 03:18:30;;;;;;;7.80;4.15;;;;;;;12.39;69.36;102526.59;5115003;27;20048;-58
2022/08/06 03:20:57;;;;;;;6.22;3.67;;;;;;;12.37;69.51;102537.31;5131776;27;20386;-58
2022/08/06 03:23:23;;;;;;;6.50;3.65;;;;;;;12.38;69.80;102541.75;5133163;27;20037;-58
2022/08/06 03:25:51;;;;;;;5.60;4.05;;;;;;;12.39;69.91;102543.47;5108636;27;20027;-58
2022/08/06 03:28:17;;;;;;;7.80;3.95;;;;;;;12.33;70.03;102541.06;5133797;27;20061;-58
2022/08/06 03:30:43;;;;;;;6.18;3.85;;;;;;;12.34;70.01;102549.94;5105428;27;20038;-58
2022/08/06 03:33:13;;;;;;;5.35;3.90;;;;;;;12.32;70.25;102546.47;5116080;27;20035;-58
2022/08/06 03:35:39;;;;;;;9.73;4.60;;;;;;;12.25;70.37;102541.38;5130685;27;20390;-58
2022/08/06 03:38:08;;;;;;;5.60;4.07;;;;;;;12.31;70.50;102556.28;5131794;27;20494;-58
2022/08/06 03:40:35;;;;;;;6.13;4.28;;;;;;;12.33;70.40;102550.88;5132810;27;20011;-58
2022/08/06 03:43:01;;;;;;;9.77;4.43;;;;;;;12.30;70.29;102551.00;5124872;27;20028;-58
2022/08/06 03:45:28;;;;;;;5.78;4.07;;;;;;;12.28;70.16;102554.59;5121840;27;20035;-58
2022/08/06 03:47:59;;;;;;;6.90;4.30;;;;;;;12.26;70.10;102556.47;5129972;27;20075;-58
2022/08/06 03:50:30;;;;;;;8.15;4.60;;;;;;;12.24;70.45;102562.81;5128205;27;20042;-58
2022/08/06 03:53:02;;;;;;;7.38;3.92;;;;;;;12.21;70.40;102561.13;5115712;27;20391;-58
2022/08/06 03:55:32;;;;;;;7.78;4.45;;;;;;;12.24;69.96;102569.00;5127587;27;20096;-58
2022/08/06 03:58:02;;;;;;;5.38;4.25;;;;;;;12.20;70.23;102572.72;5122476;27;20083;-58
2022/08/06 04:00:32;;;;;;;5.85;3.85;;;;;;;12.21;70.29;102578.94;5123343;27;20023;-58
2022/08/06 04:02:59;;;;;;;7.00;4.50;;;;;;;12.16;70.24;102570.25;5118816;27;20479;-58
2022/08/06 04:05:31;;;;;;;5.78;4.25;;;;;;;12.15;70.56;102582.75;5128777;27;20027;-58
2022/08/06 04:08:03;;;;;;;9.07;4.18;;;;;;;12.02;70.59;102574.38;5125962;27;20038;-58
2022/08/06 04:10:36;;;;;;;8.05;4.70;;;;;;;12.09;70.46;102583.00;5126266;27;20461;-58
2022/08/06 04:13:04;;;;;;;8.43;4.07;;;;;;;12.04;70.88;102587.66;5119242;27;20034;-58
2022/08/06 04:15:30;;;;;;;7.70;4.35;;;;;;;12.08;70.32;102589.25;5122994;27;20027;-58
2022/08/06 04:17:56;;;;;;;7.35;4.15;;;;;;;12.09;70.65;102584.78;5100308;28;20483;-58
2022/08/06 04:20:25;;;;;;;7.15;4.15;;;;;;;11.99;70.72;102590.50;5112257;27;20019;-58
2022/08/06 04:22:52;;;;;;;6.50;4.32;;;;;;;11.98;70.84;102595.91;5118626;27;20039;-58
2022/08/06 04:25:17;;;;;;;6.38;4.45;;;;;;;11.95;71.13;102590.69;5127773;27;20100;-58
2022/08/06 04:27:44;;;;;;;6.97;4.30;;;;;;;12.01;70.99;102593.09;5097812;27;20060;-58
2022/08/06 04:30:10;;;;;;;6.97;4.40;;;;;;;11.97;71.32;102597.72;5115252;27;20030;-58
2022/08/06 04:32:38;;;;;;;5.80;4.53;;;;;;;11.96;71.69;102598.63;5113596;27;20023;-58
2022/08/06 04:35:07;;;;;;;8.75;5.00;;;;;;;11.93;71.71;102603.22;5133311;27;20015;-58
2022/08/06 04:37:34;;;;;;;5.40;4.70;;;;;;;11.95;71.48;102596.88;5103644;28;20027;-58
2022/08/06 04:40:00;;;;;;;6.05;3.95;;;;;;;11.97;71.40;102596.81;5128829;27;20043;-58
2022/08/06 04:42:26;;;;;;;6.53;4.40;;;;;;;11.98;71.93;102601.22;5123131;27;20044;-58
2022/08/06 04:44:52;;;;;;;6.00;5.10;;;;;;;12.01;71.68;102596.63;5077742;28;20055;-58
2022/08/06 04:47:18;;;;;;;6.25;4.63;;;;;;;11.95;71.50;102583.56;5119359;27;20113;-58
2022/08/06 04:49:44;;;;;;;7.13;4.75;;;;;;;12.00;71.79;102594.91;5132978;27;20099;-61
2022/08/06 04:52:24;;;;;;;7.30;4.75;;;;;;;12.08;71.32;102601.72;5063736;28;20035;-59
2022/08/06 04:54:49;;;;;;;;;;;;;;;12.27;69.88;102613.38;5114124;27;20023;-59
2022/08/06 04:57:15;;;;;;;7.95;4.80;;;;;;;12.10;71.78;102616.72;5105675;27;19977;-59
2022/08/06 04:59:40;;;;;;;6.82;4.90;;;;;;;12.08;71.96;102615.91;5093257;28;20398;-59
2022/08/06 05:02:06;;;;;;;6.13;4.72;;;;;;;12.06;72.44;102615.13;5094264;28;20047;-59
2022/08/06 05:04:33;;;;;;;8.88;5.63;;;;;;;12.03;72.56;102605.44;5111982;28;20035;-61
2022/08/06 05:07:24;;;;;;;9.07;4.78;;;;;;;12.14;72.56;102614.78;5111921;28;20032;-59
2022/08/06 05:09:51;;;;;;;8.23;4.80;;;;;;;12.16;72.91;102618.28;5111927;28;20027;-59
2022/08/06 05:12:22;;;;;;;8.65;5.55;;;;;;;12.17;72.68;102626.19;5094581;28;20035;-59
2022/08/06 05:15:08;;;;;;;5.95;4.97;;;;;;;12.28;72.64;102629.28;5111633;28;20106;-59
2022/08/06 05:17:40;;;;;;;10.90;5.28;;;;;;;12.31;73.11;102627.44;5112188;27;20031;-59
2022/08/06 05:20:17;;;;;;;11.57;6.35;;;;;;;12.37;73.02;102627.19;5132551;27;20054;-59
2022/08/06 05:22:46;;;;;;;11.63;5.47;;;;;;;12.35;73.61;102631.72;5132533;27;20027;-59
2022/08/06 05:25:12;;;;;;;7.68;5.25;;;;;;;12.47;73.64;102631.19;5132364;27;20042;-59
2022/08/06 05:27:40;;;;;;;5.88;4.97;;;;;;;12.48;73.73;102631.13;5111987;28;20131;-59
2022/08/06 05:30:07;;;;;;;7.85;4.90;;;;;;;12.61;73.60;102631.47;5113457;27;20024;-59
2022/08/06 05:32:52;;;;;;;11.35;5.13;;;;;;;12.77;73.03;102642.38;5113431;28;20067;-59
2022/08/06 05:35:18;;;;;;;7.38;4.80;;;;;;;12.81;73.41;102627.09;5113253;28;20031;-59
2022/08/06 05:37:44;;;;;;;7.50;5.35;;;;;;;12.85;73.49;102634.91;5094184;28;20382;-59
2022/08/06 05:40:12;;;;;;;9.98;6.10;;;;;;;12.95;73.48;102638.88;5132347;28;20023;-59
2022/08/06 05:42:38;;;;;;;6.60;5.10;;;;;;;13.06;73.70;102632.19;5131417;28;20047;-59
2022/08/06 05:45:05;;;;;;;8.95;6.13;;;;;;;13.18;73.41;102645.88;5113966;28;20479;-59
2022/08/06 05:47:37;;;;;;;12.93;5.30;;;;;;;13.29;73.06;102642.72;5111817;28;20391;-59
2022/08/06 05:50:07;;;;;;;8.25;5.13;;;;;;;13.47;72.75;102643.72;5132044;28;20091;-59
2022/08/06 05:52:52;;;;;;;9.43;5.10;;;;;;;13.47;72.79;102648.16;5132112;28;20047;-58
2022/08/06 05:55:42;;;;;;;6.03;4.38;;;;;;;13.58;73.42;102640.53;5132370;28;20038;-59
2022/08/06 05:58:14;;;;;;;7.93;4.95;;;;;;;13.73;72.57;102638.94;5130083;28;20016;-59
2022/08/06 06:00:42;;;;;;;9.05;4.78;;;;;;;13.80;73.26;102643.06;5127577;28;20012;-59
2022/08/06 06:03:13;;;;;;;6.65;4.32;;;;;;;14.00;72.12;102648.31;5111732;28;20035;-58
2022/08/06 06:05:41;;;;;;;8.50;5.15;;;;;;;14.03;72.56;102655.31;5093235;28;20020;-58
2022/08/06 06:08:08;;;;;;;10.82;5.22;;;;;;;14.10;72.83;102648.72;5111696;28;20019;-59
2022/08/06 06:10:35;;;;;;;6.90;4.65;;;;;;;14.30;71.95;102653.09;5111492;28;20115;-58
2022/08/06 06:13:05;;;;;;;6.85;4.40;;;;;;;14.38;71.90;102647.34;5097084;28;20031;-59
2022/08/06 06:15:42;;;;;;;10.73;4.78;;;;;;;14.54;71.56;102659.06;5118007;27;20039;-58
2022/08/06 06:18:28;;;;;;;15.32;5.03;;;;;;;14.67;71.71;102661.97;5135520;27;20046;-58
2022/08/06 06:21:32;;;;;;;9.88;4.70;;;;;;;14.82;71.66;102657.63;5116115;27;20023;-59
2022/08/06 06:24:22;;;;;;;11.45;4.53;;;;;;;14.94;70.91;102647.16;5074946;27;20039;-58
2022/08/06 06:26:55;;;;;;;8.98;4.10;;;;;;;15.04;70.42;102655.56;5133059;27;20487;-59
2022/08/06 06:29:32;;;;;;;7.03;3.72;;;;;;;15.18;69.70;102654.84;5117228;27;20023;-58
2022/08/06 06:32:18;;;;;;;7.55;3.42;;;;;;;15.31;69.48;102658.59;5116596;27;20022;-59
2022/08/06 06:34:51;;;;;;;9.20;4.55;;;;;;;15.37;69.88;102663.63;5135721;27;20076;-59
2022/08/06 06:37:37;;;;;;;4.45;3.30;;;;;;;15.48;69.29;102663.03;5114917;27;20028;-59
2022/08/06 06:40:15;;;;;;;6.05;3.80;;;;;;;15.59;68.64;102654.41;5096783;28;20080;-58
2022/08/06 06:42:49;;;;;;;6.25;3.60;;;;;;;15.72;68.11;102668.91;5114394;28;20048;-58
2022/08/06 06:45:30;;;;;;;8.20;3.35;;;;;;;15.88;68.27;102668.88;5115180;27;20379;-58
2022/08/06 06:48:01;;;;;;;10.27;3.90;;;;;;;15.90;67.85;102658.94;5096814;28;20043;-59
2022/08/06 06:50:32;;;;;;;10.77;3.60;;;;;;;16.11;66.91;102668.44;5100026;28;20031;-58
2022/08/06 06:53:01;;;;;;;5.45;3.47;;;;;;;16.24;67.45;102673.13;5096470;28;20024;-59
2022/08/06 06:55:42;;;;;;;5.40;3.20;;;;;;;16.33;66.72;102670.78;5114505;27;20059;-59
2022/08/06 06:58:20;;;;;;;8.73;3.22;;;;;;;16.47;66.61;102671.78;5114778;28;20023;-59
2022/08/06 07:00:49;;;;;;;5.35;2.70;;;;;;;16.65;65.47;102672.50;5124071;27;20031;-59
2022/08/06 07:03:17;;;;;;;;;;;;;;;16.80;65.24;102672.50;5135753;27;20023;-59
2022/08/06 07:05:48;;;;;;;6.53;2.53;;;;;;;16.77;64.84;102672.69;5135121;27;19947;-58
2022/08/06 07:08:18;;;;;;;6.88;3.30;;;;;;;16.71;65.11;102674.84;5133509;27;20416;-59
2022/08/06 07:10:44;;;;;;;8.23;2.90;;;;;;;16.70;65.07;102678.47;5116678;27;20357;-58
2022/08/06 07:13:11;;;;;;;7.70;2.85;;;;;;;16.73;65.66;102679.16;5114427;28;20030;-59
2022/08/06 07:15:40;;;;;;;10.57;2.70;;;;;;;16.85;63.28;102674.03;5113787;28;20103;-59
2022/08/06 07:18:06;;;;;;;4.47;2.47;;;;;;;16.97;62.63;102684.94;5134937;27;20367;-59
2022/08/06 07:20:35;;;;;;;5.82;2.35;;;;;;;16.96;62.59;102687.69;5133563;27;20260;-56
2022/08/06 07:23:07;;;;;;;5.95;1.80;;;;;;;17.02;62.06;102692.69;5120463;27;20036;-56
2022/08/06 07:25:44;;;;;;;5.15;2.10;;;;;;;17.03;62.05;102689.06;5113688;28;20023;-56
2022/08/06 07:28:12;;;;;;;4.45;2.10;;;;;;;17.07;61.21;102697.81;5095938;28;20151;-56
2022/08/06 07:30:39;;;;;;;5.45;2.00;;;;;;;17.11;61.23;102688.59;5102372;27;20015;-56
2022/08/06 07:33:06;;;;;;;4.20;1.80;;;;;;;17.12;61.00;102693.88;5134702;27;20058;-56
2022/08/06 07:35:34;;;;;;;5.80;1.90;;;;;;;17.12;60.13;102698.38;5134250;27;20394;-56
2022/08/06 07:38:02;;;;;;;4.25;2.00;;;;;;;17.20;60.43;102696.94;5134227;27;20031;-56
2022/08/06 07:40:32;;;;;;;5.88;1.88;;;;;;;17.29;60.21;102700.03;5130961;27;20028;-57
2022/08/06 07:43:08;;;;;;;3.92;1.95;;;;;;;17.35;59.31;102695.13;5113903;28;20043;-56
2022/08/06 07:45:34;;;;;;;7.40;1.90;;;;;;;17.47;59.00;102704.25;5124477;27;20506;-56
2022/08/06 07:48:07;;;;;;;3.70;1.55;;;;;;;17.45;58.63;102693.59;5130639;27;20027;-56
2022/08/06 07:50:39;;;;;;;5.93;1.88;;;;;;;17.57;58.48;102705.44;5129531;27;20098;-56
2022/08/06 07:53:05;;;;;;;6.65;1.85;;;;;;;17.53;58.38;102694.94;5095540;28;20148;-56
2022/08/06 07:55:35;;;;;;;7.55;2.50;;;;;;;17.50;58.23;102701.41;5094923;28;20492;-56
2022/08/06 07:58:01;;;;;;;7.85;2.28;;;;;;;17.68;58.62;102707.44;5113463;28;20057;-56
2022/08/06 08:00:27;;;;;;;3.63;1.90;;;;;;;17.75;58.23;102695.31;5094793;28;20058;-56
2022/08/06 08:08:26;;;;;;;3.92;1.83;;;;;;;17.81;56.94;102715.63;5113677;28;20070;-56
2022/08/06 08:10:53;;;;;;;6.65;1.83;;;;;;;17.85;56.38;102711.75;5113185;28;20084;-56
2022/08/06 08:13:21;;;;;;;2.85;1.60;;;;;;;17.89;56.89;102710.63;5106654;27;20035;-56
2022/08/06 08:15:50;;;;;;;7.55;1.90;;;;;;;17.96;56.74;102716.47;5132870;27;20571;-57
2022/08/06 08:18:15;;;;;;;3.22;1.10;;;;;;;17.95;57.45;102715.63;5133766;27;20046;-56
2022/08/06 08:20:42;;;;;;;4.90;1.27;;;;;;;17.85;57.94;102718.03;5098350;27;20077;-56
2022/08/06 08:23:11;;;;;;;5.15;1.80;;;;;;;17.80;57.13;102706.69;5105987;28;20032;-56
2022/08/06 08:25:37;;;;;;;8.05;2.25;;;;;;;17.93;56.96;102713.00;5133287;27;20030;-56
2022/08/06 08:28:04;;;;;;;4.95;1.50;;;;;;;18.05;56.18;102718.56;5114695;27;20031;-56
2022/08/06 08:30:30;;;;;;;6.18;1.63;;;;;;;17.97;55.95;102711.00;5133077;27;20016;-56
2022/08/06 08:32:56;;;;;;;4.78;1.77;;;;;;;18.08;55.74;102721.91;5133443;27;20019;-57
2022/08/06 08:35:21;;;;;;;5.05;1.60;;;;;;;18.20;55.39;102722.09;5117427;27;20364;-56
2022/08/06 08:37:47;;;;;;;2.92;1.55;;;;;;;18.22;54.45;102722.88;5093882;28;20040;-57
2022/08/06 08:40:13;;;;;;;2.58;1.45;;;;;;;18.28;54.89;102715.22;5094850;28;20122;-56
2022/08/06 08:42:48;;;;;;;5.30;1.95;;;;;;;18.46;55.30;102723.06;5099855;27;20119;-56
2022/08/06 08:45:13;;;;;;;4.57;1.60;;;;;;;18.49;53.48;102720.16;5114832;27;20031;-56
2022/08/06 08:47:46;;;;;;;3.63;1.30;;;;;;;18.57;53.69;102709.75;5113018;27;20030;-56
2022/08/06 08:50:15;;;;;;;6.78;1.60;;;;;;;18.63;53.19;102717.41;5112614;28;20490;-56
2022/08/06 08:52:44;;;;;;;6.18;1.50;;;;;;;18.76;53.19;102720.16;5112242;28;20259;-59
2022/08/06 08:55:12;;;;;;;4.07;1.52;;;;;;;18.87;53.28;102720.31;5114962;27;20024;-56
2022/08/06 08:57:40;;;;;;;2.67;1.50;;;;;;;18.97;52.70;102717.84;5119999;27;20486;-56
2022/08/06 09:00:09;;;;;;;2.83;1.35;;;;;;;19.12;52.74;102722.19;5112207;28;20028;-56
2022/08/06 09:02:37;;;;;;;4.97;1.67;;;;;;;19.25;50.35;102727.59;5101664;27;20030;-56
2022/08/06 09:05:05;;;;;;;3.20;1.60;;;;;;;19.33;49.63;102724.38;5129592;27;20032;-56
2022/08/06 09:07:31;;;;;;;7.82;1.65;;;;;;;19.36;50.29;102722.31;5126304;27;20034;-56
2022/08/06 09:10:00;;;;;;;3.50;1.30;;;;;;;19.43;49.44;102718.19;5114139;27;20403;-56
2022/08/06 09:12:26;;;;;;;1.95;1.50;;;;;;;19.58;46.76;102728.88;5132614;27;20045;-56
2022/08/06 09:14:51;;;;;;;3.13;1.27;;;;;;;19.61;47.35;102726.81;5114140;27;20027;-56
2022/08/06 09:17:17;;;;;;;4.60;1.20;;;;;;;19.56;47.89;102731.69;5113896;27;20034;-56
2022/08/06 09:19:43;;;;;;;3.40;1.42;;;;;;;19.34;49.38;102737.72;5096892;27;20148;-56
2022/08/06 09:22:09;;;;;;;5.47;1.65;;;;;;;19.35;49.11;102734.03;5115525;27;20227;-56
2022/08/06 09:24:35;;;;;;;2.15;0.90;;;;;;;19.24;47.45;102739.34;5117878;27;20042;-55
2022/08/06 09:27:03;;;;;;;3.47;1.30;;;;;;;19.31;47.36;102743.34;5114057;28;20096;-56
2022/08/06 09:29:30;;;;;;;2.13;1.13;;;;;;;19.43;47.91;102737.06;5132566;27;20027;-55
2022/08/06 09:31:55;;;;;;;4.53;1.50;;;;;;;19.30;47.86;102728.13;5113793;27;20027;-56
2022/08/06 09:34:21;;;;;;;3.78;1.60;;;;;;;19.47;47.04;102735.03;5131512;28;20483;-56
2022/08/06 09:36:48;;;;;;;3.08;1.10;;;;;;;19.74;45.71;102737.66;5093278;28;20484;-56
2022/08/06 09:39:13;;;;;;;2.30;1.10;;;;;;;19.81;46.43;102735.34;5112053;28;20028;-55
2022/08/06 09:41:47;;;;;;;5.70;1.20;;;;;;;19.79;45.69;102738.16;5111210;28;20047;-56
2022/08/06 09:44:13;;;;;;;2.90;1.20;;;;;;;19.98;46.78;102728.75;5112185;28;20088;-56
2022/08/06 09:46:47;;;;;;;4.13;1.35;;;;;;;20.14;47.44;102732.88;5111758;27;20478;-55
2022/08/06 09:49:14;;;;;;;4.20;1.40;;;;;;;20.19;46.33;102733.41;5098222;28;20062;-56
2022/08/06 09:51:43;;;;;;;2.28;1.33;;;;;;;20.30;47.34;102739.88;5114749;28;20031;-56
2022/08/06 09:54:19;;;;;;;2.75;1.05;;;;;;;20.40;44.49;102736.34;5118074;27;20051;-56
2022/08/06 09:56:55;;;;;;;3.20;1.20;;;;;;;20.24;44.85;102741.19;5133922;27;20035;-56
2022/08/06 09:59:21;;;;;;;1.88;1.20;;;;;;;20.20;44.89;102748.63;5098375;27;20032;-56
2022/08/06 10:01:47;;;;;;;3.33;1.23;;;;;;;20.17;45.06;102743.47;5079956;28;20023;-57
2022/08/06 10:04:24;;;;;;;3.00;1.50;;;;;;;20.09;44.59;102739.59;5081995;28;20035;-57
2022/08/06 10:06:56;;;;;;;5.45;1.48;;;;;;;20.29;45.50;102746.25;5115536;28;20023;-57
2022/08/06 10:09:24;;;;;;;3.58;1.50;;;;;;;20.30;45.10;102739.88;5097318;28;20031;-56
2022/08/06 10:11:51;;;;;;;1.97;1.50;;;;;;;20.46;45.31;102740.44;5115489;28;20020;-57
2022/08/06 10:14:27;;;;;;;4.85;1.23;;;;;;;20.52;45.62;102741.81;5118167;27;20024;-57
2022/08/06 10:17:10;;;;;;;4.10;1.42;;;;;;;20.68;45.02;102733.44;5133986;27;20039;-57
2022/08/06 10:19:38;;;;;;;3.47;1.17;;;;;;;20.84;43.50;102740.28;5131975;27;20034;-58
2022/08/06 10:22:15;;;;;;;2.25;1.20;;;;;;;20.90;43.76;102740.78;5135945;27;20058;-57
2022/08/06 10:24:46;;;;;;;3.65;1.35;;;;;;;21.03;42.64;102728.03;5128529;27;20015;-57
2022/08/06 10:27:13;;;;;;;2.17;1.33;;;;;;;20.92;40.86;102737.00;5097582;28;20062;-57
2022/08/06 10:29:50;;;;;;;2.95;1.05;;;;;;;20.89;40.64;102725.56;5117609;27;20084;-57
2022/08/06 10:32:22;;;;;;;1.63;1.20;;;;;;;21.06;40.45;102727.78;5114739;28;20020;-57
2022/08/06 10:34:51;;;;;;;1.50;1.20;;;;;;;21.07;41.23;102729.53;5127456;27;20499;-57
2022/08/06 10:37:18;;;;;;;3.55;1.52;;;;;;;21.13;41.91;102718.22;5135506;27;20098;-55
2022/08/06 10:39:47;;;;;;;2.53;1.35;;;;;;;21.13;41.44;102728.19;5116538;27;20027;-56
2022/08/06 10:42:14;;;;;;;6.10;1.25;;;;;;;21.24;38.76;102717.41;5116844;27;20050;-55
2022/08/06 10:44:41;;;;;;;0.93;0.90;;;;;;;21.36;36.82;102723.69;5125698;27;20019;-55
2022/08/06 10:47:07;;;;;;;16.60;1.55;;;;;;;21.34;36.70;102704.84;5123029;27;20490;-56
2022/08/06 10:49:34;;;;;;;2.05;1.17;;;;;;;21.43;38.08;102706.84;5096051;27;20102;-56
2022/08/06 10:52:00;;;;;;;1.33;0.90;;;;;;;21.47;38.19;102707.47;5129790;27;20038;-56
2022/08/06 10:54:26;;;;;;;3.72;1.30;;;;;;;21.53;38.17;102712.38;5098625;27;20019;-56
2022/08/06 10:56:54;;;;;;;3.20;1.20;;;;;;;21.50;37.81;102705.41;5134143;27;20023;-56
2022/08/06 10:59:23;;;;;;;1.23;1.00;;;;;;;21.69;38.02;102714.75;5128369;27;20173;-57
2022/08/06 11:01:57;;;;;;;1.70;1.00;;;;;;;21.74;36.46;102710.69;5096304;27;20090;-57
2022/08/06 11:04:46;;;;;;;2.13;1.20;;;;;;;21.82;37.73;102701.91;5123989;27;20023;-56
2022/08/06 11:07:31;;;;;;;3.53;1.20;;;;;;;21.82;38.85;102704.63;5133418;27;20047;-55
2022/08/06 11:10:33;;;;;;;1.90;1.00;;;;;;;22.03;39.11;102698.44;5128064;27;20115;-56
2022/08/06 11:13:07;;;;;;;1.98;1.00;;;;;;;22.09;39.28;102703.34;5092586;27;20032;-56
2022/08/06 11:15:35;;;;;;;4.00;1.17;;;;;;;22.10;37.58;102697.81;5123443;27;20026;-56
2022/08/06 11:18:08;;;;;;;2.15;1.08;;;;;;;22.14;39.10;102706.53;5125170;27;20053;-56
2022/08/06 11:20:36;;;;;;;1.35;0.80;;;;;;;22.02;38.73;102697.56;5131025;27;20098;-56
2022/08/06 11:23:05;;;;;;;2.63;1.05;;;;;;;22.17;37.88;102701.75;5104975;27;20463;-56
2022/08/06 11:25:37;;;;;;;;;;;;;;;22.31;38.00;102699.75;5106384;27;20028;-56
2022/08/06 11:28:04;;;;;;;1.70;1.05;;;;;;;22.26;35.47;102693.84;5110003;27;20344;-56
2022/08/06 11:30:47;;;;;;;1.67;0.95;;;;;;;22.29;38.42;102704.44;5112995;27;20024;-56
2022/08/06 11:33:36;;;;;;;2.28;1.10;;;;;;;22.20;37.75;102706.06;5130856;27;20027;-56
2022/08/06 11:36:27;;;;;;;3.53;1.20;;;;;;;22.30;38.43;102693.47;5072853;27;20178;-56
2022/08/06 11:38:57;;;;;;;2.10;0.98;;;;;;;22.38;37.23;102693.69;5133000;27;20035;-56
2022/08/06 11:41:27;;;;;;;2.35;1.08;;;;;;;22.39;36.49;102697.28;5131383;27;20032;-56
2022/08/06 11:43:52;;;;;;;1.55;1.13;;;;;;;22.48;37.17;102690.22;5128508;27;20030;-56
2022/08/06 11:46:37;;;;;;;1.95;1.00;;;;;;;22.63;36.79;102695.19;5132979;27;20114;-56
2022/08/06 11:49:03;;;;;;;2.60;1.20;;;;;;;22.60;35.60;102691.88;5117770;27;20063;-56